Time;durP1;ratioP1;P1;durP2;ratioP2;P2;SDS_P1;SDS_P2;PMS_P1;PMS_P2;Temp;Humidity;BMP_temperature;BMP_pressure;BME280_temperature;BME280_humidity;BME280_pressure;Samples;Min_cycle;Max_cycle;Signal;HPM_P1;HPM_P2
2022/08/20 00:01:00;;;;;;;6.50;3.90;;;;;;;23.83;57.83;100245.82;84783;1327;24034;-73
2022/08/20 00:03:15;;;;;;;8.40;4.20;;;;;;;23.77;58.07;100254.42;84796;1323;23211;-71
2022/08/20 00:05:27;;;;;;;9.40;4.20;;;;;;;23.70;58.16;100255.63;84789;1326;22593;-72
2022/08/20 00:07:37;;;;;;;6.00;4.50;;;;;;;23.65;58.41;100255.33;84785;1326;22792;-71
2022/08/20 00:09:45;;;;;;;7.10;4.30;;;;;;;23.61;58.33;100260.52;84783;1326;22582;-71
2022/08/20 00:11:54;;;;;;;4.60;4.00;;;;;;;23.57;58.46;100264.48;84763;1327;22831;-73
2022/08/20 00:14:04;;;;;;;5.80;4.10;;;;;;;23.52;58.58;100265.05;84772;1326;22695;-74
2022/08/20 00:16:13;;;;;;;8.30;4.50;;;;;;;23.48;58.86;100264.81;84776;1327;22577;-71
2022/08/20 00:18:22;;;;;;;8.00;4.30;;;;;;;23.42;59.15;100266.72;84825;1326;22843;-72
2022/08/20 00:20:34;;;;;;;10.20;4.50;;;;;;;23.39;59.23;100273.45;84808;1327;24009;-72
2022/08/20 00:22:43;;;;;;;8.00;4.40;;;;;;;23.36;59.48;100264.98;84778;1326;23952;-73
2022/08/20 00:24:52;;;;;;;7.50;4.50;;;;;;;23.34;59.74;100257.17;84771;1322;22725;-72
2022/08/20 00:27:01;;;;;;;7.20;4.50;;;;;;;23.30;60.26;100258.11;84818;1327;25291;-73
2022/08/20 00:29:09;;;;;;;6.90;4.70;;;;;;;23.26;60.14;100261.54;84777;1322;22608;-72
2022/08/20 00:31:20;;;;;;;6.30;4.50;;;;;;;23.22;60.44;100258.29;84795;1326;23069;-72
2022/08/20 00:33:30;;;;;;;10.20;4.90;;;;;;;23.18;60.55;100249.58;84791;1323;24259;-72
2022/08/20 00:35:39;;;;;;;;;;;;;;;23.14;60.68;100247.59;84820;1326;25246;-72
2022/08/20 00:37:48;;;;;;;10.00;5.30;;;;;;;23.08;61.16;100238.65;84789;1327;23948;-73
2022/08/20 00:39:57;;;;;;;7.40;5.00;;;;;;;23.05;61.00;100234.95;84787;1326;22663;-70
2022/08/20 00:42:06;;;;;;;6.20;4.30;;;;;;;23.04;60.99;100230.42;84797;1328;22591;-72
2022/08/20 00:44:17;;;;;;;8.20;5.00;;;;;;;23.03;61.16;100228.89;84777;1326;25447;-70
2022/08/20 00:46:34;;;;;;;7.90;4.90;;;;;;;23.01;61.39;100219.36;84792;1326;22881;-71
2022/08/20 00:48:46;;;;;;;8.10;5.00;;;;;;;22.99;61.65;100212.00;84781;1326;24267;-73
2022/08/20 00:50:55;;;;;;;8.80;4.40;;;;;;;22.98;61.65;100203.38;84770;1326;22796;-72
2022/08/20 00:53:04;;;;;;;13.70;5.00;;;;;;;22.99;61.86;100201.38;84798;1327;25441;-73
2022/08/20 00:55:13;;;;;;;6.10;5.10;;;;;;;22.97;61.94;100194.93;84791;1325;22744;-73
2022/08/20 00:57:25;;;;;;;8.30;4.80;;;;;;;22.97;62.00;100195.39;84784;1329;22619;-71
2022/08/20 00:59:38;;;;;;;8.80;4.70;;;;;;;22.95;62.06;100190.89;84787;1322;22638;-72
2022/08/20 01:01:47;;;;;;;13.90;4.90;;;;;;;22.96;61.79;100190.45;84823;1325;25569;-72
2022/08/20 01:03:57;;;;;;;9.60;5.20;;;;;;;22.97;61.79;100186.05;84768;1326;24275;-72
2022/08/20 01:06:08;;;;;;;11.20;5.20;;;;;;;22.97;61.68;100187.83;84792;1327;22592;-73
2022/08/20 01:08:17;;;;;;;13.20;4.90;;;;;;;22.97;61.44;100184.09;84764;1325;24305;-71
2022/08/20 01:10:28;;;;;;;5.60;4.60;;;;;;;22.97;61.45;100179.65;84757;1323;23026;-73
2022/08/20 01:12:37;;;;;;;7.20;5.20;;;;;;;22.97;61.26;100174.52;84763;1327;25440;-72
2022/08/20 01:14:46;;;;;;;11.60;5.30;;;;;;;22.98;61.20;100174.83;84783;1327;22709;-72
2022/08/20 01:16:58;;;;;;;8.70;5.00;;;;;;;22.97;61.17;100170.41;84784;1327;22707;-72
2022/08/20 01:19:07;;;;;;;9.30;5.10;;;;;;;22.97;61.23;100172.41;84786;1322;22600;-73
2022/08/20 01:21:16;;;;;;;11.80;5.30;;;;;;;22.96;61.23;100166.98;84798;1326;22649;-72
2022/08/20 01:23:31;;;;;;;6.90;5.20;;;;;;;22.96;61.27;100169.16;84765;1326;22579;-72
2022/08/20 01:25:50;;;;;;;9.30;5.50;;;;;;;22.93;61.11;100165.83;84795;1322;22577;-72
2022/08/20 01:27:58;;;;;;;8.30;4.60;;;;;;;22.90;61.14;100164.48;84781;1327;22618;-71
2022/08/20 01:30:09;;;;;;;8.50;5.50;;;;;;;22.88;61.14;100160.01;84744;1323;23172;-71
2022/08/20 01:32:18;;;;;;;12.60;5.00;;;;;;;22.87;61.30;100158.34;84820;1322;22599;-72
2022/08/20 01:34:27;;;;;;;5.70;4.90;;;;;;;22.85;61.21;100163.15;84766;1327;22841;-72
2022/08/20 01:36:39;;;;;;;10.20;5.30;;;;;;;22.83;61.35;100159.61;84790;1327;25307;-74
2022/08/20 01:38:49;;;;;;;16.20;4.90;;;;;;;22.80;61.42;100155.20;84791;1326;25366;-73
2022/08/20 01:41:47;;;;;;;8.40;5.30;;;;;;;22.78;61.58;100155.81;84796;1327;25929;-72
2022/08/20 01:43:56;;;;;;;12.60;4.70;;;;;;;22.74;61.59;100149.95;84700;1326;22647;-70
2022/08/20 01:46:05;;;;;;;10.90;5.00;;;;;;;22.73;61.72;100146.30;84790;1323;22653;-73
2022/08/20 01:48:14;;;;;;;13.40;4.40;;;;;;;22.71;61.90;100140.59;84781;1327;24059;-73
2022/08/20 01:50:29;;;;;;;8.90;5.30;;;;;;;22.70;61.89;100139.14;84782;1325;22574;-73
2022/08/20 01:52:42;;;;;;;10.30;5.00;;;;;;;22.66;62.00;100141.27;84768;1322;22591;-72
2022/08/20 01:54:51;;;;;;;15.10;5.90;;;;;;;22.63;62.36;100142.77;84777;1326;22593;-72
2022/08/20 01:57:04;;;;;;;7.70;5.10;;;;;;;22.58;62.29;100143.54;84760;1324;22847;-73
2022/08/20 01:59:13;;;;;;;10.50;5.40;;;;;;;22.53;62.55;100142.46;84785;1326;22613;-74
2022/08/20 02:01:28;;;;;;;11.70;5.10;;;;;;;22.47;62.76;100141.27;84805;1327;22722;-70
2022/08/20 02:03:37;;;;;;;12.90;5.70;;;;;;;22.40;63.04;100139.86;84794;1326;22584;-72
2022/08/20 02:05:46;;;;;;;12.00;5.20;;;;;;;22.37;63.21;100138.26;84785;1325;22600;-70
2022/08/20 02:07:54;;;;;;;11.10;5.20;;;;;;;22.31;63.62;100137.19;84771;1327;23474;-70
2022/08/20 02:10:04;;;;;;;7.70;4.90;;;;;;;22.24;63.74;100132.13;84774;1326;25459;-72
2022/08/20 02:12:13;;;;;;;7.00;5.30;;;;;;;22.20;63.99;100129.32;84807;1326;22738;-72
2022/08/20 02:14:22;;;;;;;14.00;6.40;;;;;;;22.17;64.15;100125.98;84790;1327;22632;-73
2022/08/20 02:16:33;;;;;;;9.90;5.70;;;;;;;22.17;64.22;100126.58;84795;1329;22933;-72
2022/08/20 02:18:41;;;;;;;6.50;5.40;;;;;;;22.17;64.28;100130.30;84780;1322;22600;-72
2022/08/20 02:20:50;;;;;;;10.40;5.20;;;;;;;22.17;64.50;100132.77;84773;1325;22668;-72
2022/08/20 02:23:00;;;;;;;5.90;4.50;;;;;;;22.16;64.42;100120.61;84764;1327;22960;-72
2022/08/20 02:25:10;;;;;;;10.20;5.50;;;;;;;22.15;64.41;100126.50;84777;1326;24279;-70
2022/08/20 02:27:22;;;;;;;12.90;6.50;;;;;;;22.16;64.48;100127.66;84771;1327;22738;-73
2022/08/20 02:29:31;;;;;;;5.50;4.50;;;;;;;22.17;64.50;100141.84;84786;1326;22603;-74
2022/08/20 02:31:42;;;;;;;7.90;5.40;;;;;;;22.16;64.56;100158.23;84781;1327;22593;-72
2022/08/20 02:33:51;;;;;;;6.50;5.20;;;;;;;22.14;64.53;100165.34;84778;1326;24296;-73
2022/08/20 02:36:00;;;;;;;11.30;5.40;;;;;;;22.12;64.77;100159.31;84750;1322;25495;-71
2022/08/20 02:38:08;;;;;;;11.70;5.20;;;;;;;22.07;64.85;100162.40;84802;1327;22655;-73
2022/08/20 02:40:19;;;;;;;10.30;6.00;;;;;;;22.05;64.91;100181.41;84816;1327;22592;-73
2022/08/20 02:42:28;;;;;;;10.60;5.90;;;;;;;22.04;65.06;100184.54;84769;1325;22597;-70
2022/08/20 02:44:37;;;;;;;13.10;5.10;;;;;;;22.00;65.23;100176.85;84772;1326;26180;-70
2022/08/20 02:46:46;;;;;;;8.90;5.60;;;;;;;21.99;65.17;100179.66;84783;1327;25274;-73
2022/08/20 02:48:55;;;;;;;10.90;5.40;;;;;;;21.95;65.41;100179.80;84785;1325;22727;-73
2022/08/20 02:51:05;;;;;;;12.10;5.40;;;;;;;21.90;65.75;100174.35;84738;1326;23981;-72
2022/08/20 02:53:14;;;;;;;8.00;5.50;;;;;;;21.86;66.00;100162.80;84794;1326;23573;-73
2022/08/20 02:55:25;;;;;;;7.90;5.80;;;;;;;21.83;66.04;100161.71;84784;1328;22580;-73
2022/08/20 02:57:33;;;;;;;9.40;5.70;;;;;;;21.81;66.18;100158.65;84820;1327;23901;-73
2022/08/20 02:59:43;;;;;;;7.60;5.90;;;;;;;21.80;66.29;100147.75;84775;1326;22726;-73
2022/08/20 03:01:52;;;;;;;13.90;7.30;;;;;;;21.76;66.63;100129.29;84828;1327;22565;-72
2022/08/20 03:04:02;;;;;;;9.50;6.10;;;;;;;21.77;66.57;100124.98;84784;1326;22785;-73
2022/08/20 03:06:12;;;;;;;12.10;7.30;;;;;;;21.79;66.50;100130.26;84795;1325;22612;-70
2022/08/20 03:08:22;;;;;;;10.50;6.90;;;;;;;21.81;66.62;100137.88;84735;1327;22580;-70
2022/08/20 03:10:33;;;;;;;;;;;;;;;21.81;66.55;100134.17;84798;1326;23921;-71
2022/08/20 03:12:42;;;;;;;8.60;5.30;;;;;;;21.80;66.67;100125.70;84801;1326;22635;-72
2022/08/20 03:14:50;;;;;;;10.20;6.20;;;;;;;21.82;66.59;100124.33;84767;1327;24193;-74
2022/08/20 03:16:59;;;;;;;8.70;5.50;;;;;;;21.82;66.63;100122.89;84786;1329;22573;-73
2022/08/20 03:19:08;;;;;;;11.60;6.50;;;;;;;21.83;66.58;100124.38;84782;1325;25323;-73
2022/08/20 03:21:17;;;;;;;8.70;5.30;;;;;;;21.84;66.59;100125.86;84787;1327;25437;-72
2022/08/20 03:23:25;;;;;;;7.70;5.40;;;;;;;21.83;66.96;100121.89;84756;1327;22667;-70
2022/08/20 03:25:34;;;;;;;9.70;6.70;;;;;;;21.84;66.85;100118.82;84796;1327;22647;-72
2022/08/20 03:27:43;;;;;;;7.80;6.30;;;;;;;21.85;66.93;100112.63;84775;1326;25435;-72
2022/08/20 03:29:52;;;;;;;7.40;5.90;;;;;;;21.87;66.80;100110.71;84782;1326;22603;-72
2022/08/20 03:32:01;;;;;;;10.90;6.10;;;;;;;21.89;66.80;100110.90;84762;1326;22575;-70
2022/08/20 03:34:10;;;;;;;8.80;5.20;;;;;;;21.91;66.68;100112.83;84769;1326;22574;-72
2022/08/20 03:36:19;;;;;;;12.10;6.00;;;;;;;21.93;66.65;100107.05;84757;1326;22587;-72
2022/08/20 03:38:28;;;;;;;10.10;5.40;;;;;;;21.94;66.80;100100.30;84729;1327;22583;-72
2022/08/20 03:40:37;;;;;;;12.10;5.30;;;;;;;21.97;66.74;100097.77;84362;1326;598479;-72
2022/08/20 03:42:46;;;;;;;12.10;6.80;;;;;;;21.99;66.68;100103.96;84769;1322;22584;-71
2022/08/20 03:44:54;;;;;;;10.20;5.90;;;;;;;22.02;66.74;100103.90;84771;1327;22606;-70
2022/08/20 03:47:06;;;;;;;7.90;5.40;;;;;;;22.04;66.69;100107.64;84819;1326;22712;-70
2022/08/20 03:49:15;;;;;;;8.10;5.90;;;;;;;22.05;66.73;100112.30;84742;1327;22817;-70
2022/08/20 03:51:24;;;;;;;7.40;5.10;;;;;;;22.06;66.83;100107.80;84800;1326;25299;-71
2022/08/20 03:53:34;;;;;;;11.10;6.00;;;;;;;22.07;66.76;100104.70;84788;1329;22599;-73
2022/08/20 03:55:44;;;;;;;10.50;6.00;;;;;;;22.08;66.94;100102.48;84756;1327;22850;-72
2022/08/20 03:57:55;;;;;;;7.00;5.80;;;;;;;22.11;66.87;100100.60;84769;1329;22666;-72
2022/08/20 04:00:05;;;;;;;11.10;6.10;;;;;;;22.15;66.78;100102.91;84788;1328;25285;-72
2022/08/20 04:02:14;;;;;;;7.50;5.80;;;;;;;22.19;66.71;100106.15;84788;1327;22842;-71
2022/08/20 04:04:23;;;;;;;10.80;6.10;;;;;;;22.22;66.65;100118.64;84772;1326;22613;-72
2022/08/20 04:06:32;;;;;;;7.50;5.70;;;;;;;22.25;66.53;100126.38;84794;1326;24241;-72
2022/08/20 04:08:41;;;;;;;14.10;6.00;;;;;;;22.28;66.56;100131.98;84781;1326;24240;-73
2022/08/20 04:10:50;;;;;;;10.40;5.60;;;;;;;22.29;66.57;100136.42;84744;1318;22630;-72
2022/08/20 04:12:59;;;;;;;11.50;6.40;;;;;;;22.32;66.87;100136.04;84785;1325;22836;-71
2022/08/20 04:15:11;;;;;;;9.70;5.40;;;;;;;22.32;66.89;100141.66;84777;1327;24238;-74
2022/08/20 04:17:20;;;;;;;9.40;6.20;;;;;;;22.33;67.04;100141.57;84802;1327;25262;-70
2022/08/20 04:19:29;;;;;;;11.30;5.50;;;;;;;22.35;67.01;100136.40;84755;1327;22586;-71
2022/08/20 04:21:38;;;;;;;11.30;6.20;;;;;;;22.41;67.13;100128.27;84795;1327;22587;-70
2022/08/20 04:23:47;;;;;;;9.10;6.00;;;;;;;22.47;67.25;100125.58;84797;1327;22589;-72
2022/08/20 04:25:56;;;;;;;9.60;5.80;;;;;;;22.54;67.10;100126.70;84806;1326;25295;-72
2022/08/20 04:28:09;;;;;;;10.00;6.00;;;;;;;22.62;67.09;100127.02;84792;1327;22559;-71
2022/08/20 04:30:20;;;;;;;6.90;5.50;;;;;;;22.70;67.05;100126.86;84787;1327;22832;-72
2022/08/20 04:32:28;;;;;;;10.40;6.10;;;;;;;22.78;67.10;100133.05;84807;1322;24195;-74
2022/08/20 04:34:39;;;;;;;6.70;6.10;;;;;;;22.83;66.94;100136.80;84772;1327;25567;-74
2022/08/20 04:36:51;;;;;;;10.30;6.50;;;;;;;22.88;66.73;100139.95;84805;1326;22606;-73
2022/08/20 04:39:00;;;;;;;8.00;6.00;;;;;;;22.90;66.78;100141.65;84663;1330;22899;-72
2022/08/20 04:41:09;;;;;;;8.00;5.80;;;;;;;22.93;67.08;100142.48;84778;1328;24357;-71
2022/08/20 04:43:18;;;;;;;10.50;6.80;;;;;;;22.94;66.81;100143.80;84782;1322;22812;-73
2022/08/20 04:45:27;;;;;;;10.80;6.90;;;;;;;22.98;66.88;100143.44;84776;1326;22812;-71
2022/08/20 04:47:36;;;;;;;8.40;6.10;;;;;;;23.16;67.00;100143.51;84767;1327;22585;-70
2022/08/20 04:49:45;;;;;;;10.70;5.90;;;;;;;23.28;66.44;100142.74;84772;1326;22760;-72
2022/08/20 04:51:54;;;;;;;7.60;5.70;;;;;;;23.30;65.88;100139.87;84750;1327;25424;-73
2022/08/20 04:54:04;;;;;;;8.30;5.70;;;;;;;23.30;65.67;100135.85;84794;1327;24109;-69
2022/08/20 04:56:12;;;;;;;8.70;5.80;;;;;;;23.28;65.44;100137.23;84791;1329;22787;-71
2022/08/20 04:58:23;;;;;;;9.10;6.40;;;;;;;23.26;65.38;100138.00;84765;1326;22610;-73
2022/08/20 05:00:33;;;;;;;8.30;5.80;;;;;;;23.22;65.25;100144.72;84806;1324;24333;-71
2022/08/20 05:02:42;;;;;;;8.30;5.90;;;;;;;23.20;65.35;100146.96;84784;1326;25131;-71
2022/08/20 05:04:51;;;;;;;8.10;6.10;;;;;;;23.18;65.79;100148.69;84773;1327;22685;-72
2022/08/20 05:07:00;;;;;;;8.50;6.80;;;;;;;23.15;65.82;100151.60;84808;1327;22605;-72
2022/08/20 05:09:08;;;;;;;8.60;6.50;;;;;;;23.13;65.57;100143.80;84761;1327;24797;-73
2022/08/20 05:11:20;;;;;;;7.40;6.40;;;;;;;23.12;65.65;100141.95;84809;1319;22825;-72
2022/08/20 05:13:29;;;;;;;9.80;6.20;;;;;;;23.13;65.67;100139.75;84770;1326;22608;-72
2022/08/20 05:15:38;;;;;;;9.20;6.40;;;;;;;23.13;65.65;100138.80;84787;1322;22597;-72
2022/08/20 05:17:50;;;;;;;8.10;5.80;;;;;;;23.15;65.77;100142.75;84786;1327;22583;-72
2022/08/20 05:19:59;;;;;;;12.40;6.30;;;;;;;23.15;65.72;100150.17;84772;1325;23967;-72
2022/08/20 05:22:08;;;;;;;6.50;5.10;;;;;;;23.16;65.66;100152.59;84808;1323;22594;-72
2022/08/20 05:24:16;;;;;;;6.30;5.40;;;;;;;23.18;65.87;100154.55;84786;1326;22599;-72
2022/08/20 05:26:25;;;;;;;11.60;6.50;;;;;;;23.20;65.70;100154.00;84785;1327;25394;-71
2022/08/20 05:28:35;;;;;;;10.90;7.60;;;;;;;23.23;65.60;100155.01;84782;1327;22620;-70
2022/08/20 05:30:44;;;;;;;9.80;6.00;;;;;;;23.27;65.57;100155.20;84788;1325;22599;-73
2022/08/20 05:32:51;;;;;;;;;;;;;;;23.29;65.34;100150.65;84777;1327;22586;-73
2022/08/20 05:35:00;;;;;;;13.20;6.80;;;;;;;23.29;65.47;100151.42;84785;1326;22593;-73
2022/08/20 05:37:09;;;;;;;7.00;6.30;;;;;;;23.34;65.41;100148.02;84799;1329;23060;-73
2022/08/20 05:39:19;;;;;;;8.30;6.00;;;;;;;23.41;65.43;100143.83;84755;1325;22584;-74
2022/08/20 05:41:28;;;;;;;10.50;7.00;;;;;;;23.50;65.17;100142.80;84757;1327;22579;-74
2022/08/20 05:43:37;;;;;;;8.50;5.50;;;;;;;23.59;64.75;100138.22;84791;1327;22590;-72
2022/08/20 05:45:50;;;;;;;10.00;6.40;;;;;;;23.66;64.39;100134.83;84771;1326;22696;-71
2022/08/20 05:47:58;;;;;;;7.80;6.40;;;;;;;23.73;63.89;100129.99;84764;1329;23860;-70
2022/08/20 05:50:09;;;;;;;12.30;6.80;;;;;;;23.74;63.62;100129.81;84772;1326;26587;-70
2022/08/20 05:52:18;;;;;;;14.10;6.50;;;;;;;24.00;64.37;100129.38;84789;1327;22593;-71
2022/08/20 05:54:27;;;;;;;15.40;6.20;;;;;;;24.58;63.98;100126.76;84767;1323;23629;-73
2022/08/20 05:56:36;;;;;;;15.60;6.40;;;;;;;24.83;62.19;100123.34;84812;1321;22587;-72
2022/08/20 05:58:45;;;;;;;11.40;6.60;;;;;;;24.82;61.41;100125.85;84759;1325;22650;-72
2022/08/20 06:00:54;;;;;;;9.40;6.30;;;;;;;24.77;60.97;100126.77;84792;1325;22593;-72
2022/08/20 06:05:30;;;;;;;9.90;6.40;;;;;;;24.58;60.86;100135.32;84781;1327;22581;-72
2022/08/20 06:07:39;;;;;;;9.60;6.80;;;;;;;24.52;60.97;100134.27;84775;1326;22831;-72
2022/08/20 06:09:48;;;;;;;14.20;6.50;;;;;;;24.52;61.15;100136.99;84778;1326;22645;-71
2022/08/20 06:11:58;;;;;;;8.50;7.60;;;;;;;24.50;61.21;100137.13;84815;1327;26078;-72
2022/08/20 06:14:06;;;;;;;11.30;7.20;;;;;;;24.50;61.22;100136.92;84716;1327;22594;-73
2022/08/20 06:16:15;;;;;;;13.00;7.10;;;;;;;24.56;61.23;100138.20;84778;1326;22643;-71
2022/08/20 06:18:25;;;;;;;9.00;7.10;;;;;;;24.61;61.21;100141.70;84774;1323;22604;-74
2022/08/20 06:20:34;;;;;;;14.80;6.60;;;;;;;24.68;61.14;100143.64;84775;1327;22593;-73
2022/08/20 06:22:43;;;;;;;14.50;6.50;;;;;;;24.79;61.25;100146.77;84786;1329;23895;-73
2022/08/20 06:24:52;;;;;;;17.20;8.00;;;;;;;25.03;61.23;100145.71;84800;1326;25483;-72
2022/08/20 06:27:02;;;;;;;8.10;7.20;;;;;;;25.38;60.55;100148.87;84791;1326;25272;-70
2022/08/20 06:29:09;;;;;;;;;;;;;;;25.92;60.35;100151.27;84803;1327;22592;-71
2022/08/20 06:31:17;;;;;;;10.50;6.00;;;;;;;26.54;59.11;100149.83;84785;1329;22587;-71
2022/08/20 06:33:26;;;;;;;10.90;6.00;;;;;;;27.03;57.93;100151.39;84767;1326;22580;-70
2022/08/20 06:35:36;;;;;;;14.10;7.10;;;;;;;27.22;56.66;100154.33;84754;1326;25251;-72
2022/08/20 06:37:45;;;;;;;7.60;6.00;;;;;;;27.24;55.99;100155.50;84788;1329;22670;-73
2022/08/20 06:39:54;;;;;;;13.00;6.60;;;;;;;27.19;55.47;100157.55;84793;1327;23936;-72
2022/08/20 06:42:03;;;;;;;9.30;5.90;;;;;;;27.12;55.82;100159.52;84798;1326;22584;-72
2022/08/20 06:44:12;;;;;;;10.30;6.70;;;;;;;27.06;55.39;100159.91;84799;1327;22588;-72
2022/08/20 06:46:22;;;;;;;9.50;6.50;;;;;;;26.94;55.04;100157.46;84817;1327;22667;-71
2022/08/20 06:48:30;;;;;;;9.60;6.40;;;;;;;26.81;55.01;100162.42;84786;1327;22602;-71
2022/08/20 06:50:44;;;;;;;13.50;6.50;;;;;;;26.67;54.87;100165.21;84791;1327;24293;-73
2022/08/20 06:52:53;;;;;;;10.70;6.40;;;;;;;26.54;54.96;100168.67;84785;1328;22593;-74
2022/08/20 06:55:01;;;;;;;;;;;;;;;26.39;55.11;100171.45;84796;1325;22739;-72
2022/08/20 06:57:10;;;;;;;16.20;6.20;;;;;;;26.25;55.50;100169.73;84801;1326;22618;-70
2022/08/20 06:59:19;;;;;;;10.00;6.60;;;;;;;26.15;55.64;100176.21;84784;1327;23930;-71
2022/08/20 07:01:28;;;;;;;10.90;6.50;;;;;;;26.08;55.87;100175.71;84829;1327;22678;-72
2022/08/20 07:03:40;;;;;;;9.70;7.50;;;;;;;26.02;56.10;100180.02;84827;1327;22654;-72
2022/08/20 07:05:51;;;;;;;9.60;6.80;;;;;;;25.97;56.23;100181.88;84814;1326;26547;-72
2022/08/20 07:08:00;;;;;;;8.60;6.90;;;;;;;25.93;56.65;100185.08;84823;1327;22591;-72
2022/08/20 07:10:11;;;;;;;9.50;6.50;;;;;;;25.89;56.72;100180.75;84789;1329;24110;-72
2022/08/20 07:12:20;;;;;;;9.10;7.70;;;;;;;25.88;56.98;100176.20;84818;1329;26507;-71
2022/08/20 07:14:29;;;;;;;12.70;7.30;;;;;;;25.89;56.86;100173.20;84806;1327;22842;-72
2022/08/20 07:16:37;;;;;;;9.10;7.30;;;;;;;25.90;57.19;100169.39;84840;1329;22682;-71
2022/08/20 07:18:46;;;;;;;11.00;7.20;;;;;;;25.94;57.63;100168.04;84783;1328;22675;-71
2022/08/20 07:20:55;;;;;;;8.20;7.40;;;;;;;26.01;57.27;100169.27;84822;1327;22563;-71
2022/08/20 07:23:04;;;;;;;8.50;7.40;;;;;;;26.06;57.18;100172.52;84803;1326;22586;-71
2022/08/20 07:25:15;;;;;;;7.60;6.40;;;;;;;26.16;57.63;100176.59;84800;1329;22604;-71
2022/08/20 07:27:25;;;;;;;8.60;7.00;;;;;;;26.34;57.58;100178.23;84809;1326;22629;-72
2022/08/20 07:34:30;;;;;;;16.50;8.10;;;;;;;26.99;56.49;100174.41;84773;1326;23959;-71
2022/08/20 07:36:39;;;;;;;13.20;7.70;;;;;;;27.22;56.30;100169.70;84794;1327;22594;-73
2022/08/20 07:38:51;;;;;;;13.00;7.10;;;;;;;27.79;56.29;100170.52;84788;1326;23951;-73
2022/08/20 07:41:03;;;;;;;9.00;6.40;;;;;;;28.55;54.55;100164.56;84815;1326;22653;-72
2022/08/20 07:43:14;;;;;;;8.80;6.50;;;;;;;29.32;52.34;100160.84;84792;1326;23894;-72
2022/08/20 07:45:26;;;;;;;11.80;6.30;;;;;;;29.85;51.15;100163.00;84775;1327;25732;-72
2022/08/20 07:47:35;;;;;;;7.60;6.80;;;;;;;30.42;49.57;100159.55;84804;1329;25288;-71
2022/08/20 07:49:44;;;;;;;8.60;6.20;;;;;;;30.74;47.54;100157.05;84791;1321;22863;-71
2022/08/20 07:51:52;;;;;;;11.30;6.90;;;;;;;30.66;46.92;100157.34;84827;1327;24075;-72
2022/08/20 07:54:01;;;;;;;12.40;7.80;;;;;;;30.52;46.69;100159.61;84801;1326;24256;-72
2022/08/20 07:56:12;;;;;;;10.20;6.20;;;;;;;30.45;46.94;100159.39;84798;1322;22599;-72
2022/08/20 07:58:23;;;;;;;13.20;6.50;;;;;;;30.33;46.60;100156.94;84776;1327;23077;-72
2022/08/20 08:00:32;;;;;;;10.40;6.30;;;;;;;30.17;47.39;100151.36;84807;1328;22706;-72
2022/08/20 08:02:40;;;;;;;9.10;6.30;;;;;;;30.08;47.39;100152.86;84783;1328;22638;-70
2022/08/20 08:04:50;;;;;;;10.00;6.40;;;;;;;30.24;48.84;100148.48;84828;1329;22731;-71
2022/08/20 08:06:59;;;;;;;10.50;6.70;;;;;;;31.03;47.92;100142.46;84822;1327;25938;-71
2022/08/20 08:09:10;;;;;;;8.00;6.50;;;;;;;31.82;47.01;100135.61;84794;1326;22704;-72
2022/08/20 08:11:19;;;;;;;13.30;6.30;;;;;;;32.69;44.70;100128.96;84802;1326;22712;-72
2022/08/20 08:13:28;;;;;;;7.50;6.20;;;;;;;33.36;42.98;100127.61;84806;1322;24241;-70
2022/08/20 08:15:38;;;;;;;17.00;6.40;;;;;;;33.77;40.83;100130.66;84788;1327;22844;-72
2022/08/20 08:17:48;;;;;;;10.20;6.50;;;;;;;34.25;40.76;100131.31;84777;1326;22603;-71
2022/08/20 08:19:57;;;;;;;7.90;6.40;;;;;;;34.78;39.35;100127.64;84822;1327;22605;-71
2022/08/20 08:22:04;;;;;;;;;;;;;;;34.90;38.27;100127.73;84823;1329;24241;-72
2022/08/20 08:24:14;;;;;;;6.30;5.50;;;;;;;34.67;37.96;100135.01;84792;1326;22590;-72
2022/08/20 08:26:24;;;;;;;6.90;5.40;;;;;;;34.75;37.82;100137.03;84830;1327;22943;-71
2022/08/20 08:28:35;;;;;;;7.50;5.60;;;;;;;34.89;38.36;100128.25;84800;1327;24241;-71
2022/08/20 08:30:47;;;;;;;9.80;5.10;;;;;;;35.31;38.11;100132.29;84833;1327;22598;-71
2022/08/20 08:35:25;;;;;;;7.00;5.30;;;;;;;35.12;36.66;100135.63;84790;1327;23999;-70
2022/08/20 08:37:34;;;;;;;10.50;5.90;;;;;;;34.92;36.94;100137.60;84813;1329;23965;-72
2022/08/20 08:39:43;;;;;;;8.10;5.40;;;;;;;34.73;36.50;100133.48;84802;1329;22618;-72
2022/08/20 08:41:53;;;;;;;8.30;5.00;;;;;;;35.04;37.18;100125.81;84828;1326;24238;-71
2022/08/20 08:44:11;;;;;;;5.60;5.10;;;;;;;35.51;35.84;100120.98;84795;1318;22684;-71
2022/08/20 08:46:23;;;;;;;12.60;6.40;;;;;;;35.80;34.77;100121.06;84815;1327;22581;-71
2022/08/20 08:48:44;;;;;;;5.50;4.80;;;;;;;35.53;34.91;100123.02;84769;1326;22599;-71
2022/08/20 08:50:57;;;;;;;10.50;5.20;;;;;;;35.40;34.93;100130.34;84805;1329;22883;-72
2022/08/20 08:53:07;;;;;;;8.00;5.00;;;;;;;35.34;35.56;100138.69;84801;1328;22617;-72
2022/08/20 08:55:18;;;;;;;11.70;5.60;;;;;;;35.57;35.82;100140.19;84811;1327;22868;-72
2022/08/20 08:57:27;;;;;;;9.90;5.50;;;;;;;36.02;34.84;100143.70;84847;1326;26483;-72
2022/08/20 08:59:36;;;;;;;8.40;5.20;;;;;;;36.49;34.43;100146.44;84795;1326;22617;-72
2022/08/20 09:01:47;;;;;;;8.80;5.20;;;;;;;36.80;33.68;100145.27;84831;1329;22589;-72
2022/08/20 09:03:56;;;;;;;6.20;4.50;;;;;;;37.25;33.71;100141.33;84812;1329;22610;-72
2022/08/20 09:06:06;;;;;;;8.70;5.00;;;;;;;37.73;32.86;100143.78;84807;1326;24243;-72
2022/08/20 09:08:18;;;;;;;6.70;5.00;;;;;;;37.99;31.53;100146.17;84801;1318;22586;-71
2022/08/20 09:10:27;;;;;;;12.00;5.50;;;;;;;37.71;31.17;100150.08;84815;1327;25501;-71
2022/08/20 09:12:36;;;;;;;9.40;5.60;;;;;;;37.39;31.25;100152.71;84817;1327;25367;-72
2022/08/20 09:14:46;;;;;;;6.20;5.50;;;;;;;37.15;31.88;100154.23;84792;1327;22788;-72
2022/08/20 09:16:58;;;;;;;10.80;6.70;;;;;;;37.12;31.71;100153.79;84824;1329;22840;-71
2022/08/20 09:19:07;;;;;;;6.90;5.70;;;;;;;37.18;32.50;100155.73;84792;1329;22830;-71
2022/08/20 09:21:16;;;;;;;6.30;5.20;;;;;;;37.26;31.87;100154.59;84814;1327;25449;-72
2022/08/20 09:23:25;;;;;;;10.30;5.40;;;;;;;37.48;32.32;100154.43;84779;1327;22589;-73
2022/08/20 09:25:34;;;;;;;10.10;5.60;;;;;;;37.83;32.08;100151.25;84829;1326;24374;-72
2022/08/20 09:27:42;;;;;;;5.40;4.90;;;;;;;38.11;31.98;100152.20;84818;1325;22726;-72
2022/08/20 09:29:52;;;;;;;12.90;6.50;;;;;;;38.33;31.23;100151.02;84795;1329;22852;-71
2022/08/20 09:32:10;;;;;;;9.90;5.50;;;;;;;38.35;30.28;100146.44;84787;1327;22606;-72
2022/08/20 09:34:19;;;;;;;9.30;5.70;;;;;;;38.17;30.30;100145.59;84826;1326;22582;-72
2022/08/20 09:36:28;;;;;;;7.50;5.10;;;;;;;37.96;31.10;100142.52;84800;1327;22584;-72
2022/08/20 09:38:35;;;;;;;;;;;;;;;37.86;31.21;100145.70;84796;1323;23920;-73
2022/08/20 09:40:44;;;;;;;7.70;5.30;;;;;;;37.69;31.08;100142.45;84838;1329;22610;-72
2022/08/20 09:42:53;;;;;;;5.80;4.80;;;;;;;37.53;31.43;100147.50;84757;1325;24239;-71
2022/08/20 09:45:00;;;;;;;;;;;;;;;37.22;31.07;100138.46;84797;1327;25275;-71
2022/08/20 09:47:09;;;;;;;11.70;5.30;;;;;;;36.80;31.39;100138.93;84801;1322;25486;-72
2022/08/20 09:49:20;;;;;;;7.20;4.70;;;;;;;36.46;32.42;100138.84;84799;1326;22717;-72
2022/08/20 09:51:29;;;;;;;9.30;5.10;;;;;;;36.21;32.81;100140.92;84812;1330;22705;-72
2022/08/20 09:53:38;;;;;;;10.70;5.30;;;;;;;36.03;33.24;100137.52;84826;1328;22589;-73
2022/08/20 09:55:46;;;;;;;;;;;;;;;35.79;32.88;100138.48;84812;1326;22669;-72
2022/08/20 09:57:55;;;;;;;11.60;5.00;;;;;;;35.45;33.66;100134.86;84793;1327;22609;-72
2022/08/20 10:00:07;;;;;;;11.50;5.40;;;;;;;35.31;34.30;100132.58;84799;1327;22755;-72
2022/08/20 10:02:16;;;;;;;10.10;6.00;;;;;;;35.20;34.34;100131.36;84781;1327;22632;-71
2022/08/20 10:04:25;;;;;;;6.60;5.40;;;;;;;34.96;33.96;100126.59;84794;1329;22836;-71
2022/08/20 10:06:37;;;;;;;12.60;5.70;;;;;;;34.77;35.03;100127.39;84797;1326;26158;-71
2022/08/20 10:08:46;;;;;;;13.40;6.60;;;;;;;34.76;35.99;100118.75;84797;1327;22836;-71
2022/08/20 10:10:54;;;;;;;7.90;5.10;;;;;;;34.78;35.65;100116.69;84832;1328;22692;-71
2022/08/20 10:13:03;;;;;;;6.60;5.00;;;;;;;34.68;35.84;100116.17;84803;1326;23903;-72